• Join FlightAware (Why Join?)
  • Login
  • US Flag GB Flag 
22:55 EDT


 

Airport Tracker/Info


-or-


 

Live Flight TrackerFlight Track Log ✈ EGF4383 ✈ 05-May-2013 ✈ KCHO - KORD

Flight Track Log - Related Links

Times and Time Zones

All times are in EDT time to prevent confusion due to time zone crossing. See the EGF4383 flight status page for this flight to view local times or setup timezone preferences in your user account.

Time Position Orientation Groundspeed Altitude Reporting Facility
EDT Latitude Longitude Course Direction KTS MPH feet Rate Location/Type
17:50 38.1833 -78.4333 294° West 184 212 2,400  Level Potomac TRACON
17:51 38.2167 -78.5000 302° West 238 274 5,500 2,880 Climbing Potomac TRACON
17:52 38.2605 -78.8077 299° West  Level FlightAware Approximate
17:52 38.2350 -78.5419 299° West 257 296 7,200  Level Washington Center
17:53 38.3103 -78.9246 298° West  Level FlightAware Approximate
17:53 38.2642 -78.6328 292° West 284 327 8,900  Level Washington Center
17:54 38.3593 -79.0421 298° West  Level FlightAware Approximate
17:54 38.2992 -78.7294 295° West 298 343 9,000  Level Washington Center
17:55 38.4052 -79.1616 294° West  Level FlightAware Approximate
17:55 38.3342 -78.8264 295° West 303 349 9,700  Level Washington Center
17:56 38.4481 -79.2831 294° West  Level FlightAware Approximate
17:56 38.3767 -78.9500 294° West 330 380 11,100  Level Washington Center
17:58 38.4614 -79.1872 295° West 360 414 14,100 960 Climbing Washington Center
17:59 38.5269 -79.3794 294° West 400 460 14,800 1,320 Climbing Indianapolis Center
18:00 38.5772 -79.5286 293° West 391 450 17,700 2,160 Climbing Indianapolis Center
18:01 38.5872 -79.5600 292° West 400 460 17,800 960 Climbing Washington Center
18:02 38.6292 -79.6792 294° West 381 438 19,000 1,380 Climbing Washington Center
18:03 38.6786 -79.8203 294° West 381 438 20,700 1,560 Climbing Washington Center
18:04 38.7217 -79.9503 293° West 391 450 22,200 1,200 Climbing Washington Center
18:05 38.7669 -80.0836 294° West 396 456 23,100 660 Climbing Washington Center
18:06 38.7983 -80.1728 294° West 422 486 23,400 420 Climbing Indianapolis Center
18:07 38.8575 -80.3447 294° West 440 506 23,900 420 Climbing Indianapolis Center
18:08 38.9267 -80.4836 303° West 461 531 24,300 420 Climbing Indianapolis Center
18:09 38.9931 -80.6250 301° West 464 534 24,800 300 Climbing Indianapolis Center
18:10 39.0608 -80.7683 301° West 469 540 25,000 60 Climbing Indianapolis Center
18:11 39.1283 -80.9139 301° West 475 547 25,000 60 Level Indianapolis Center
18:12 39.1967 -81.0600 301° West 476 548 25,200 540 Climbing Indianapolis Center
18:13 39.2761 -81.2325 301° West 472 543 26,200 840 Climbing Indianapolis Center
18:14 39.3414 -81.3753 301° West 467 537 27,000 780 Climbing Indianapolis Center
18:15 39.4050 -81.5161 300° West 460 529 27,900 900 Climbing Indianapolis Center
18:16 39.4683 -81.6550 301° West 454 522 28,900 660 Climbing Indianapolis Center
18:18 39.5956 -81.9361 300° West 454 522 30,100 540 Climbing Indianapolis Center
18:19 39.6742 -82.1111 300° West 466 536 30,700 600 Climbing Indianapolis Center
18:20 39.7383 -82.2600 299° West 474 545 31,400 600 Climbing Indianapolis Center
18:21 39.8044 -82.4089 300° West 475 547 32,000 240 Climbing Indianapolis Center
18:22 39.8717 -82.5567 301° West 471 542 32,000 -60 Level Indianapolis Center
18:23 39.9361 -82.7064 299° West 471 542 31,900  Descending Indianapolis Center
18:24 40.0117 -82.8789 300° West 469 540 32,000  Climbing Indianapolis Center
18:25 40.0767 -83.0281 300° West 472 543 32,000  Level Indianapolis Center
18:26 40.1406 -83.1775 299° West 472 543 32,000  Level Indianapolis Center
18:27 40.2053 -83.3275 300° West 474 545 32,000  Level Indianapolis Center
18:28 40.2706 -83.4786 300° West 478 550 32,000  Level Indianapolis Center
18:29 40.3339 -83.6297 299° West 474 545 32,000  Level Indianapolis Center
18:30 40.4092 -83.8069 299° West 474 545 32,000  Level Indianapolis Center
18:31 40.4733 -83.9572 299° West 472 543 32,000  Level Indianapolis Center
18:32 40.5372 -84.1117 299° West 478 550 32,000  Level Indianapolis Center
18:33 40.6008 -84.2647 299° West 474 545 32,000  Level Indianapolis Center
18:34 40.6494 -84.3789 299° West 475 547 32,000  Level Chicago Center
18:35 40.7119 -84.5319 298° West 476 548 32,000  Level Chicago Center
18:36 40.7739 -84.6850 298° West 474 545 32,000  Level Chicago Center
18:37 40.8367 -84.8383 298° West 474 545 32,000  Level Chicago Center
18:38 40.8947 -84.9936 296° West 472 543 32,000  Level Chicago Center
18:39 40.9547 -85.1494 297° West 474 545 32,000 -300 Level Chicago Center
18:40 41.0250 -85.3392 296° West 476 548 31,500 -540 Descending Chicago Center
18:41 41.0856 -85.5000 297° West 484 557 30,900 -1,380 Descending Chicago Center
18:42 41.1450 -85.6614 296° West 485 558 28,700 -2,400 Descending Chicago Center
18:43 41.2047 -85.8231 296° West 486 559 26,000 -1,800 Descending Chicago Center
18:45 41.2650 -85.9864 296° West 489 563 25,000 -540 Descending Chicago Center
18:46 41.3133 -86.1531 291° West 485 558 25,000  Level Chicago Center
18:47 41.3542 -86.3219 288° West 482 555 25,000 -120 Level Chicago Center
18:48 41.3969 -86.4883 289° West 476 548 24,800 -1,440 Descending Chicago Center
18:49 41.4422 -86.6778 288° West 451 519 22,100 -2,880 Descending Chicago Center
18:50 41.4808 -86.8258 289° West 439 505 18,900 -2,820 Descending Chicago Center
18:51 41.5161 -86.9708 288° West 421 484 16,300 -2,880 Descending Chicago Center
18:52 41.5503 -87.1114 288° West 407 468 13,000 -2,340 Descending Chicago Center
18:52 41.5833 -87.2333 290° West 373 429 12,100 -1,020 Descending Chicago TRACON
18:53 41.6333 -87.3500 300° West 374 430 11,300 -900 Descending Chicago TRACON
18:54 41.6583 -87.3686 331° Northwest 374 430 11,000 -600 Descending Chicago Center
18:55 41.7219 -87.4719 310° West 366 421 10,500 -720 Descending Chicago Center
18:56 41.7803 -87.5675 309° West 335 386 9,600 -960 Descending Chicago Center
18:56 41.8167 -87.6333 307° West 273 314 8,900 -1,260 Descending Chicago TRACON
18:57 41.8333 -87.7167 285° West 261 300 7,600 -960 Descending Chicago TRACON
18:59 41.8333 -87.8167 270° West 230 265 7,000 -960 Descending Chicago TRACON
19:00 41.8167 -87.8833 251° West 201 231 5,700 -1,380 Descending Chicago TRACON
19:00 41.8042 -87.9067 234° Southwest 203 234 5,000 -1,140 Descending Chicago Center
19:01 41.8092 -87.9728 276° West 208 239 4,000 -900 Descending Chicago Center
19:02 41.8531 -88.0133 325° Northwest 205 236 3,200 -780 Descending Chicago Center